createdAt,value
2022-12-11T00:00:27.277Z,89.41
2022-12-11T00:03:16.414Z,89.55
2022-12-11T00:05:44.905Z,89.67
2022-12-11T00:08:12.911Z,89.81
2022-12-11T00:10:39.692Z,90.03
2022-12-11T00:13:06.573Z,89.91
2022-12-11T00:15:33.369Z,89.81
2022-12-11T00:18:00.156Z,90.29
2022-12-11T00:20:27.375Z,90.85
2022-12-11T00:22:54.093Z,90.85
2022-12-11T00:25:20.780Z,91.05
2022-12-11T00:27:47.728Z,91.08
2022-12-11T00:30:14.664Z,91.12
2022-12-11T00:32:42.534Z,91.19
2022-12-11T00:35:09.897Z,91.07
2022-12-11T00:37:36.935Z,90.90
2022-12-11T00:40:04.088Z,90.93
2022-12-11T00:42:30.827Z,91.19
2022-12-11T00:44:57.537Z,90.92
2022-12-11T00:47:24.594Z,91.01
2022-12-11T00:49:51.630Z,91.03
2022-12-11T00:52:18.361Z,90.87
2022-12-11T00:54:45.047Z,90.71
2022-12-11T00:57:11.795Z,90.70
2022-12-11T00:59:38.653Z,90.78
2022-12-11T01:02:05.385Z,90.55
2022-12-11T01:04:35.907Z,90.57
2022-12-11T01:07:02.810Z,90.46
2022-12-11T01:09:48.337Z,90.32
2022-12-11T01:12:15.076Z,90.37
2022-12-11T01:14:41.829Z,90.49
2022-12-11T01:17:08.542Z,90.83
2022-12-11T01:19:35.253Z,91.00
2022-12-11T01:22:02.414Z,91.31
2022-12-11T01:24:29.086Z,91.70
2022-12-11T01:26:55.856Z,92.26
2022-12-11T01:29:22.538Z,91.87
2022-12-11T01:31:49.228Z,91.69
2022-12-11T01:34:15.909Z,91.50
2022-12-11T01:36:43.255Z,91.31
2022-12-11T01:39:09.963Z,91.49
2022-12-11T01:41:36.684Z,91.49
2022-12-11T01:44:07.764Z,91.07
2022-12-11T01:46:36.070Z,91.02
2022-12-11T01:49:07.352Z,90.80
2022-12-11T01:51:41.204Z,90.77
2022-12-11T01:54:13.021Z,91.14
2022-12-11T01:56:43.185Z,91.29
2022-12-11T01:59:10.572Z,91.22
2022-12-11T02:01:46.508Z,91.11
2022-12-11T02:04:15.654Z,91.33
2022-12-11T02:06:46.336Z,91.40
2022-12-11T02:09:19.775Z,91.42
2022-12-11T02:12:01.516Z,91.39
2022-12-11T02:14:39.366Z,91.99
2022-12-11T02:17:32.333Z,91.90
2022-12-11T02:20:16.281Z,92.31
2022-12-11T02:22:42.964Z,92.24
2022-12-11T02:25:12.756Z,92.11
2022-12-11T02:27:49.733Z,92.19
2022-12-11T02:30:17.132Z,92.05
2022-12-11T02:32:52.504Z,91.91
2022-12-11T02:35:23.396Z,92.02
2022-12-11T02:38:00.077Z,91.88
2022-12-11T02:40:31.339Z,91.81
2022-12-11T02:43:02.563Z,91.90
2022-12-11T02:45:30.518Z,91.82
2022-12-11T02:48:00.456Z,91.84
2022-12-11T02:50:28.445Z,91.81
2022-12-11T02:52:57.071Z,91.49
2022-12-11T02:55:26.661Z,91.54
2022-12-11T02:58:12.371Z,91.60
2022-12-11T03:00:39.423Z,91.55
2022-12-11T03:03:06.437Z,91.68
2022-12-11T03:05:33.369Z,91.77
2022-12-11T03:08:02.047Z,91.58
2022-12-11T03:10:28.834Z,91.36
2022-12-11T03:12:57.940Z,91.58
2022-12-11T03:15:43.862Z,91.35
2022-12-11T03:18:18.560Z,91.82
2022-12-11T03:20:50.384Z,91.89
2022-12-11T03:23:26.320Z,92.28
2022-12-11T03:25:54.390Z,92.24
2022-12-11T03:28:25.459Z,92.45
2022-12-11T03:30:53.696Z,92.41
2022-12-11T03:33:28.979Z,92.02
2022-12-11T03:36:04.581Z,92.30
2022-12-11T03:38:38.597Z,91.82
2022-12-11T03:41:07.879Z,91.58
2022-12-11T03:43:35.720Z,91.94
2022-12-11T03:46:03.166Z,92.11
2022-12-11T03:48:37.495Z,92.28
2022-12-11T03:51:07.081Z,92.51
2022-12-11T03:53:36.682Z,93.04
2022-12-11T03:56:09.224Z,93.50
2022-12-11T03:58:36.241Z,93.90
2022-12-11T04:01:02.945Z,94.15
2022-12-11T04:03:29.693Z,94.43
2022-12-11T04:05:56.501Z,94.99
2022-12-11T04:08:23.664Z,94.99
2022-12-11T04:11:09.721Z,94.61
2022-12-11T04:13:37.390Z,94.51
2022-12-11T04:16:04.326Z,94.07
2022-12-11T04:18:49.916Z,94.64
2022-12-11T04:21:39.441Z,94.39
2022-12-11T04:24:16.172Z,94.27
2022-12-11T04:26:45.019Z,94.34
2022-12-11T04:29:12.682Z,94.34
2022-12-11T04:31:39.563Z,94.00
2022-12-11T04:34:06.511Z,93.67
2022-12-11T04:36:33.301Z,93.87
2022-12-11T04:39:00.161Z,93.88
2022-12-11T04:41:27.042Z,93.72
2022-12-11T04:43:53.900Z,93.57
2022-12-11T04:46:22.652Z,93.35
2022-12-11T04:48:56.755Z,93.47
2022-12-11T04:51:24.547Z,94.00
2022-12-11T04:53:51.331Z,94.83
2022-12-11T04:56:18.174Z,94.64
2022-12-11T04:58:46.001Z,95.11
2022-12-11T05:01:18.888Z,94.90
2022-12-11T05:03:46.573Z,95.66
2022-12-11T05:06:14.003Z,95.45
2022-12-11T05:08:42.795Z,95.19
2022-12-11T05:11:12.244Z,95.33
2022-12-11T05:13:39.494Z,95.47
2022-12-11T05:16:08.797Z,95.14
2022-12-11T05:18:35.847Z,95.08
2022-12-11T05:21:10.349Z,94.92
2022-12-11T05:23:37.921Z,94.71
2022-12-11T05:26:07.704Z,94.80
2022-12-11T05:28:36.893Z,94.61
2022-12-11T05:31:16.776Z,94.51
2022-12-11T05:33:44.857Z,94.46
2022-12-11T05:36:21.226Z,94.65
2022-12-11T05:38:48.418Z,95.24
2022-12-11T05:41:18.203Z,95.13
2022-12-11T05:43:45.347Z,95.46
2022-12-11T05:46:13.672Z,95.42
2022-12-11T05:48:41.906Z,95.56
2022-12-11T05:51:09.609Z,95.73
2022-12-11T05:53:37.672Z,95.55
2022-12-11T05:56:10.908Z,94.70
2022-12-11T05:58:38.889Z,93.67
2022-12-11T06:01:26.930Z,92.23
2022-12-11T06:03:54.941Z,89.53
2022-12-11T06:06:22.808Z,87.43
2022-12-11T06:08:53.853Z,88.31
2022-12-11T06:11:24.132Z,88.65
2022-12-11T06:13:52.451Z,88.39
2022-12-11T06:16:19.907Z,88.17
2022-12-11T06:18:47.254Z,86.63
2022-12-11T06:21:18.069Z,85.22
2022-12-11T06:23:46.753Z,85.30
2022-12-11T06:26:14.606Z,85.26
2022-12-11T06:28:41.390Z,84.68
2022-12-11T06:31:08.249Z,84.27
2022-12-11T06:33:35.993Z,84.39
2022-12-11T06:36:05.189Z,84.00
2022-12-11T06:38:32.005Z,84.17
2022-12-11T06:41:00.395Z,84.08
2022-12-11T06:43:27.041Z,84.46
2022-12-11T06:45:56.836Z,84.10
2022-12-11T06:48:26.212Z,83.99
2022-12-11T06:50:53.034Z,83.38
2022-12-11T06:53:19.820Z,82.27
2022-12-11T06:55:46.705Z,79.96
2022-12-11T06:58:13.437Z,78.96
2022-12-11T07:00:40.189Z,78.75
2022-12-11T07:03:07.085Z,77.92
2022-12-11T07:05:33.798Z,77.95
2022-12-11T07:08:01.029Z,76.72
2022-12-11T07:10:28.102Z,75.95
2022-12-11T07:12:55.143Z,76.83
2022-12-11T07:15:21.954Z,76.46
2022-12-11T07:17:48.679Z,76.63
2022-12-11T07:20:16.675Z,74.05
2022-12-11T07:22:46.588Z,73.40
2022-12-11T07:25:14.354Z,73.46
2022-12-11T07:27:41.260Z,73.37
2022-12-11T07:30:10.402Z,73.20
2022-12-11T07:32:37.819Z,72.24
2022-12-11T07:35:05.005Z,73.19
2022-12-11T07:37:31.705Z,73.85
2022-12-11T07:39:58.461Z,73.36
2022-12-11T07:42:25.253Z,73.31
2022-12-11T07:44:51.926Z,73.90
2022-12-11T07:47:18.736Z,73.96
2022-12-11T07:49:45.549Z,73.38
2022-12-11T07:52:12.242Z,73.19
2022-12-11T07:54:39.178Z,73.52
2022-12-11T07:57:08.156Z,73.41
2022-12-11T07:59:39.215Z,73.60
2022-12-11T08:02:06.347Z,73.37
2022-12-11T08:04:32.997Z,73.07
2022-12-11T08:06:59.673Z,72.91
2022-12-11T08:09:26.499Z,72.60
2022-12-11T08:11:53.268Z,72.46
2022-12-11T08:14:20.549Z,71.93
2022-12-11T08:16:48.528Z,71.69
2022-12-11T08:19:15.680Z,71.03
2022-12-11T08:21:42.976Z,71.22
2022-12-11T08:24:09.976Z,71.03
2022-12-11T08:26:36.897Z,70.85
2022-12-11T08:29:03.797Z,70.13
2022-12-11T08:31:32.781Z,69.72
2022-12-11T08:33:59.762Z,69.71
2022-12-11T08:36:26.826Z,70.72
2022-12-11T08:38:55.786Z,70.50
2022-12-11T08:41:27.788Z,70.83
2022-12-11T08:43:57.025Z,72.91
2022-12-11T08:46:26.868Z,73.35
2022-12-11T08:48:54.806Z,73.21
2022-12-11T08:51:25.441Z,72.55
2022-12-11T08:53:55.571Z,72.54
2022-12-11T08:56:23.252Z,72.36
2022-12-11T08:58:51.037Z,71.85
2022-12-11T09:01:25.987Z,71.06
2022-12-11T09:03:54.339Z,69.71
2022-12-11T09:06:23.427Z,68.72
2022-12-11T09:08:53.095Z,67.68
2022-12-11T09:11:23.400Z,66.45
2022-12-11T09:13:50.308Z,66.67
2022-12-11T09:16:19.660Z,67.25
2022-12-11T09:18:48.262Z,66.75
2022-12-11T09:21:18.332Z,67.54
2022-12-11T09:23:45.318Z,67.00
2022-12-11T09:26:14.599Z,66.92
2022-12-11T09:28:46.206Z,65.80
2022-12-11T09:31:17.508Z,63.93
2022-12-11T09:33:45.255Z,62.78
2022-12-11T09:36:13.560Z,60.66
2022-12-11T09:38:43.399Z,57.16
2022-12-11T09:41:29.034Z,53.09
2022-12-11T09:44:15.325Z,50.85
2022-12-11T09:46:43.743Z,48.03
2022-12-11T09:49:24.272Z,46.31
2022-12-11T09:52:06.952Z,42.39
2022-12-11T09:54:34.917Z,38.48
2022-12-11T09:57:40.824Z,34.66
2022-12-11T10:00:24.151Z,30.37
2022-12-11T10:03:00.611Z,31.62
2022-12-11T10:05:50.569Z,33.47
2022-12-11T10:08:36.936Z,35.04
2022-12-11T10:11:42.095Z,36.36
2022-12-11T10:14:44.651Z,38.94
2022-12-11T10:17:31.958Z,40.68
2022-12-11T10:20:09.397Z,42.73
2022-12-11T10:22:36.699Z,43.91
2022-12-11T10:25:11.097Z,44.53
2022-12-11T10:27:41.016Z,44.69
2022-12-11T10:30:17.406Z,42.66
2022-12-11T10:32:51.985Z,39.86
2022-12-11T10:35:38.954Z,39.88
2022-12-11T10:38:12.140Z,39.67
2022-12-11T10:40:44.706Z,38.97
2022-12-11T10:43:12.198Z,35.09
2022-12-11T10:45:39.973Z,35.46
2022-12-11T10:48:12.099Z,35.60
2022-12-11T10:50:39.594Z,33.72
2022-12-11T10:53:20.677Z,33.66
2022-12-11T10:55:48.786Z,33.07
2022-12-11T10:58:20.191Z,34.54
2022-12-11T11:01:02.248Z,36.26
2022-12-11T11:03:32.674Z,37.02
2022-12-11T11:06:15.827Z,37.57
2022-12-11T11:08:52.459Z,38.23
2022-12-11T11:11:36.365Z,37.94
2022-12-11T11:14:20.387Z,38.82
2022-12-11T11:16:50.599Z,36.60
2022-12-11T11:19:22.277Z,35.15
2022-12-11T11:22:05.527Z,32.41
2022-12-11T11:24:41.106Z,29.69
2022-12-11T11:27:19.806Z,28.31
2022-12-11T11:29:52.809Z,27.80
2022-12-11T11:32:24.099Z,25.43
2022-12-11T11:34:51.454Z,24.72
2022-12-11T11:37:32.750Z,25.04
2022-12-11T11:40:29.797Z,25.63
2022-12-11T11:43:10.622Z,27.65
2022-12-11T11:45:49.498Z,29.17
2022-12-11T11:48:28.422Z,30.13
2022-12-11T11:50:57.475Z,31.81
2022-12-11T11:53:40.025Z,33.38
2022-12-11T11:56:28.272Z,33.97
2022-12-11T11:59:05.092Z,35.43
2022-12-11T12:01:33.263Z,36.83
2022-12-11T12:04:03.420Z,37.73
2022-12-11T12:07:10.862Z,38.03
2022-12-11T12:09:59.128Z,39.14
2022-12-11T12:12:44.034Z,40.07
2022-12-11T12:15:13.966Z,41.17
2022-12-11T12:18:24.563Z,41.47
2022-12-11T12:21:16.773Z,42.21
2022-12-11T12:23:59.079Z,42.97
2022-12-11T12:26:36.368Z,43.36
2022-12-11T12:29:40.927Z,43.83
2022-12-11T12:32:27.818Z,44.76
2022-12-11T12:35:30.253Z,46.30
2022-12-11T12:38:19.004Z,47.24
2022-12-11T12:41:02.966Z,47.78
2022-12-11T12:43:42.673Z,49.87
2022-12-11T12:46:37.456Z,50.95
2022-12-11T12:49:13.260Z,52.21
2022-12-11T12:51:41.145Z,53.28
2022-12-11T12:54:16.055Z,53.23
2022-12-11T12:56:46.607Z,54.33
2022-12-11T12:59:23.133Z,55.00
2022-12-11T13:02:00.555Z,55.90
2022-12-11T13:04:57.872Z,56.39
2022-12-11T13:07:32.160Z,56.94
2022-12-11T13:10:31.585Z,58.15
2022-12-11T13:13:00.174Z,60.28
2022-12-11T13:15:32.020Z,61.78
2022-12-11T13:18:00.746Z,62.52
2022-12-11T13:20:31.614Z,62.90
2022-12-11T13:23:18.232Z,63.33
2022-12-11T13:25:59.617Z,64.22
2022-12-11T13:28:38.697Z,65.05
2022-12-11T13:31:07.527Z,65.35
2022-12-11T13:33:49.425Z,65.93
2022-12-11T13:36:24.409Z,65.72
2022-12-11T13:38:56.244Z,66.37
2022-12-11T13:41:23.468Z,66.30
2022-12-11T13:43:51.650Z,66.50
2022-12-11T13:46:29.983Z,66.60
2022-12-11T13:49:03.294Z,67.10
2022-12-11T13:51:34.717Z,66.86
2022-12-11T13:54:17.686Z,67.02
2022-12-11T13:56:53.635Z,67.30
2022-12-11T13:59:34.527Z,68.08
2022-12-11T14:02:22.721Z,68.46
2022-12-11T14:04:53.969Z,69.02
2022-12-11T14:07:37.499Z,68.96
2022-12-11T14:10:15.918Z,69.21
2022-12-11T14:12:55.379Z,69.21
2022-12-11T14:15:22.938Z,69.53
2022-12-11T14:17:51.942Z,69.39
2022-12-11T14:20:25.027Z,69.34
2022-12-11T14:22:51.774Z,69.16
2022-12-11T14:25:25.195Z,69.47
2022-12-11T14:27:56.443Z,69.52
2022-12-11T14:30:26.704Z,69.31
2022-12-11T14:32:58.048Z,69.86
2022-12-11T14:35:38.886Z,70.03
2022-12-11T14:38:16.233Z,70.14
2022-12-11T14:40:46.551Z,69.91
2022-12-11T14:43:28.411Z,69.66
2022-12-11T14:46:00.840Z,71.00
2022-12-11T14:48:35.610Z,70.88
2022-12-11T14:51:06.899Z,70.82
2022-12-11T14:53:44.514Z,71.18
2022-12-11T14:56:18.812Z,70.74
2022-12-11T14:59:14.686Z,70.58
2022-12-11T15:01:41.449Z,70.42
2022-12-11T15:04:14.173Z,70.82
2022-12-11T15:06:46.177Z,70.68
2022-12-11T15:09:25.076Z,70.63
2022-12-11T15:11:54.606Z,71.66
2022-12-11T15:14:23.565Z,71.88
2022-12-11T15:16:53.275Z,72.40
2022-12-11T15:19:29.882Z,73.34
2022-12-11T15:22:09.063Z,73.80
2022-12-11T15:24:37.853Z,74.41
2022-12-11T15:27:05.948Z,74.80
2022-12-11T15:29:35.862Z,75.33
2022-12-11T15:32:08.954Z,75.66
2022-12-11T15:34:44.425Z,75.39
2022-12-11T15:37:24.876Z,75.47
2022-12-11T15:39:53.095Z,75.71
2022-12-11T15:42:25.563Z,76.15
2022-12-11T15:44:54.910Z,76.47
2022-12-11T15:47:27.928Z,76.70
2022-12-11T15:49:58.287Z,76.65
2022-12-11T15:52:25.292Z,76.95
2022-12-11T15:54:51.950Z,77.42
2022-12-11T15:57:23.776Z,77.57
2022-12-11T15:59:53.579Z,78.45
2022-12-11T16:02:21.001Z,77.86
2022-12-11T16:04:47.783Z,78.32
2022-12-11T16:07:23.211Z,78.51
2022-12-11T16:09:50.604Z,78.91
2022-12-11T16:12:17.835Z,79.84
2022-12-11T16:14:45.497Z,80.01
2022-12-11T16:17:14.550Z,80.46
2022-12-11T16:19:42.826Z,80.40
2022-12-11T16:22:11.577Z,80.38
2022-12-11T16:24:39.670Z,80.15
2022-12-11T16:27:09.049Z,80.81
2022-12-11T16:29:38.209Z,81.76
2022-12-11T16:32:07.724Z,82.07
2022-12-11T16:34:36.910Z,82.12
2022-12-11T16:37:05.697Z,81.81
2022-12-11T16:39:32.469Z,82.30
2022-12-11T16:41:59.444Z,82.74
2022-12-11T16:44:26.819Z,82.97
2022-12-11T16:46:53.783Z,83.35
2022-12-11T16:49:21.954Z,83.41
2022-12-11T16:51:49.105Z,83.61
2022-12-11T16:54:16.825Z,83.79
2022-12-11T16:56:44.233Z,83.43
2022-12-11T16:59:12.320Z,83.55
2022-12-11T17:01:39.366Z,83.41
2022-12-11T17:04:06.595Z,83.90
2022-12-11T17:06:33.501Z,84.11
2022-12-11T17:09:00.566Z,83.96
2022-12-11T17:11:27.642Z,84.30
2022-12-11T17:13:56.257Z,85.08
2022-12-11T17:16:25.565Z,85.15
2022-12-11T17:18:52.963Z,84.96
2022-12-11T17:21:21.658Z,84.90
2022-12-11T17:23:49.990Z,84.39
2022-12-11T17:26:17.746Z,84.18
2022-12-11T17:28:45.307Z,83.77
2022-12-11T17:31:16.473Z,83.43
2022-12-11T17:33:44.604Z,83.28
2022-12-11T17:36:19.259Z,82.84
2022-12-11T17:38:46.629Z,83.11
2022-12-11T17:41:20.313Z,82.99
2022-12-11T17:43:51.438Z,82.97
2022-12-11T17:46:20.092Z,82.61
2022-12-11T17:48:47.913Z,82.06
2022-12-11T17:51:21.285Z,82.35
2022-12-11T17:53:48.080Z,82.85
2022-12-11T17:56:15.897Z,83.24
2022-12-11T17:58:43.094Z,83.26
2022-12-11T18:01:12.546Z,83.54
2022-12-11T18:03:40.431Z,83.80
2022-12-11T18:06:13.100Z,83.78
2022-12-11T18:08:41.219Z,83.93
2022-12-11T18:11:10.937Z,83.33
2022-12-11T18:13:38.201Z,82.94
2022-12-11T18:16:16.139Z,82.80
2022-12-11T18:18:45.306Z,82.48
2022-12-11T18:21:13.862Z,82.07
2022-12-11T18:23:40.759Z,81.97
2022-12-11T18:26:07.500Z,81.47
2022-12-11T18:28:34.291Z,81.52
2022-12-11T18:31:02.048Z,82.43
2022-12-11T18:33:29.870Z,82.47
2022-12-11T18:35:56.634Z,82.73
2022-12-11T18:38:23.401Z,82.81
2022-12-11T18:40:50.457Z,83.22
2022-12-11T18:43:17.661Z,83.58
2022-12-11T18:45:45.004Z,83.31
2022-12-11T18:48:13.561Z,82.94
2022-12-11T18:50:48.129Z,82.58
2022-12-11T18:53:16.191Z,82.49
2022-12-11T18:55:45.096Z,82.88
2022-12-11T18:58:13.612Z,82.85
2022-12-11T19:00:41.917Z,83.44
2022-12-11T19:03:10.232Z,83.64
2022-12-11T19:05:41.754Z,83.55
2022-12-11T19:08:11.918Z,83.44
2022-12-11T19:10:45.010Z,83.68
2022-12-11T19:13:12.659Z,83.67
2022-12-11T19:15:43.498Z,83.52
2022-12-11T19:18:10.416Z,83.85
2022-12-11T19:21:03.095Z,83.61
2022-12-11T19:23:25.560Z,83.80
2022-12-11T19:25:52.321Z,83.88
2022-12-11T19:28:19.077Z,83.37
2022-12-11T19:30:48.320Z,82.84
2022-12-11T19:33:16.220Z,82.99
2022-12-11T19:35:43.306Z,82.84
2022-12-11T19:38:12.087Z,83.13
2022-12-11T19:40:41.237Z,83.02
2022-12-11T19:43:08.533Z,83.10
2022-12-11T19:45:35.831Z,82.85
2022-12-11T19:48:02.943Z,82.55
2022-12-11T19:50:29.695Z,81.97
2022-12-11T19:52:56.506Z,81.83
2022-12-11T19:55:23.271Z,82.03
2022-12-11T19:57:50.046Z,81.94
2022-12-11T20:00:18.247Z,81.72
2022-12-11T20:02:45.105Z,81.84
2022-12-11T20:05:12.397Z,81.72
2022-12-11T20:07:39.553Z,81.70
2022-12-11T20:10:06.648Z,81.90
2022-12-11T20:12:34.032Z,81.59
2022-12-11T20:15:00.901Z,81.44
2022-12-11T20:17:27.668Z,81.58
2022-12-11T20:19:54.445Z,81.49
2022-12-11T20:22:21.721Z,81.49
2022-12-11T20:24:48.367Z,81.48
2022-12-11T20:27:15.083Z,81.68
2022-12-11T20:29:41.955Z,81.76
2022-12-11T20:32:10.740Z,81.66
2022-12-11T20:34:37.887Z,81.17
2022-12-11T20:37:04.637Z,81.50
2022-12-11T20:39:31.396Z,81.56
2022-12-11T20:41:58.119Z,81.52
2022-12-11T20:44:25.268Z,81.80
2022-12-11T20:46:52.217Z,81.83
2022-12-11T20:49:19.208Z,81.90
2022-12-11T20:51:46.339Z,81.98
2022-12-11T20:54:13.297Z,81.80
2022-12-11T20:56:39.967Z,82.21
2022-12-11T20:59:06.865Z,82.98
2022-12-11T21:01:34.419Z,83.21
2022-12-11T21:04:01.462Z,83.13
2022-12-11T21:06:34.611Z,82.87
2022-12-11T21:09:07.233Z,83.10
2022-12-11T21:11:34.581Z,83.58
2022-12-11T21:14:01.444Z,83.76
2022-12-11T21:16:28.326Z,83.71
2022-12-11T21:18:56.861Z,83.51
2022-12-11T21:21:24.331Z,83.51
2022-12-11T21:23:51.253Z,83.98
2022-12-11T21:26:18.440Z,84.26
2022-12-11T21:28:45.281Z,84.06
2022-12-11T21:31:15.392Z,84.30
2022-12-11T21:33:42.240Z,83.98
2022-12-11T21:36:10.771Z,83.82
2022-12-11T21:38:38.971Z,83.46
2022-12-11T21:41:13.043Z,83.28
2022-12-11T21:44:03.241Z,82.77
2022-12-11T21:46:28.059Z,82.83
2022-12-11T21:48:55.322Z,82.89
2022-12-11T21:51:34.071Z,82.63
2022-12-11T21:54:04.724Z,82.52
2022-12-11T21:56:32.189Z,82.34
2022-12-11T21:59:00.712Z,81.87
2022-12-11T22:01:34.709Z,81.93
2022-12-11T22:04:02.614Z,81.77
2022-12-11T22:06:29.353Z,81.86
2022-12-11T22:08:56.599Z,81.80
2022-12-11T22:11:29.032Z,82.27
2022-12-11T22:13:56.732Z,82.85
2022-12-11T22:16:23.862Z,82.80
2022-12-11T22:18:50.942Z,83.22
2022-12-11T22:21:18.205Z,83.43
2022-12-11T22:23:45.566Z,83.74
2022-12-11T22:26:17.878Z,83.11
2022-12-11T22:28:44.630Z,83.24
2022-12-11T22:31:13.499Z,83.41
2022-12-11T22:33:40.717Z,83.11
2022-12-11T22:36:07.988Z,82.90
2022-12-11T22:38:34.882Z,82.05
2022-12-11T22:41:09.211Z,81.08
2022-12-11T22:43:36.126Z,80.94
2022-12-11T22:46:02.970Z,80.23
2022-12-11T22:48:30.542Z,79.58
2022-12-11T22:50:57.410Z,79.78
2022-12-11T22:53:24.124Z,79.30
2022-12-11T22:55:50.877Z,78.88
2022-12-11T22:58:21.792Z,78.92
2022-12-11T23:00:48.882Z,79.23
2022-12-11T23:03:15.977Z,79.44
2022-12-11T23:05:42.890Z,78.50
2022-12-11T23:08:09.873Z,78.39
2022-12-11T23:10:40.321Z,78.07
2022-12-11T23:13:07.235Z,78.50
2022-12-11T23:15:35.101Z,78.44
2022-12-11T23:18:02.088Z,78.33
2022-12-11T23:20:28.933Z,78.26
2022-12-11T23:22:55.814Z,77.49
2022-12-11T23:25:22.473Z,77.33
2022-12-11T23:27:49.283Z,76.87
2022-12-11T23:30:16.175Z,76.85
2022-12-11T23:32:42.962Z,76.90
2022-12-11T23:35:10.212Z,76.82
2022-12-11T23:37:37.383Z,76.49
2022-12-11T23:40:05.168Z,76.89
2022-12-11T23:42:34.014Z,76.91
2022-12-11T23:45:00.884Z,76.23
2022-12-11T23:47:27.708Z,76.51
2022-12-11T23:49:54.432Z,76.29
2022-12-11T23:52:22.018Z,76.12
2022-12-11T23:54:51.227Z,76.20
2022-12-11T23:57:17.990Z,77.00
2022-12-11T23:59:44.825Z,76.91
